createdAt,value
2018-07-12T00:00:17.108Z,1013.17
2018-07-12T00:01:17.066Z,1013.18
2018-07-12T00:02:17.028Z,1013.18
2018-07-12T00:03:16.983Z,1013.21
2018-07-12T00:04:16.944Z,1013.23
2018-07-12T00:05:16.900Z,1013.24
2018-07-12T00:06:16.859Z,1013.22
2018-07-12T00:07:16.819Z,1013.22
2018-07-12T00:08:16.778Z,1013.26
2018-07-12T00:09:16.741Z,1013.24
2018-07-12T00:10:16.697Z,1013.27
2018-07-12T00:11:16.658Z,1013.28
2018-07-12T00:12:16.607Z,1013.29
2018-07-12T00:13:16.568Z,1013.33
2018-07-12T00:14:16.525Z,1013.33
2018-07-12T00:15:16.484Z,1013.33
2018-07-12T00:16:16.448Z,1013.38
2018-07-12T00:17:16.401Z,1013.33
2018-07-12T00:18:16.359Z,1013.35
2018-07-12T00:19:16.320Z,1013.34
2018-07-12T00:20:16.279Z,1013.33
2018-07-12T00:21:16.241Z,1013.38
2018-07-12T00:22:16.192Z,1013.36
2018-07-12T00:24:16.113Z,1013.39
2018-07-12T00:25:16.068Z,1013.38
2018-07-12T00:26:16.036Z,1013.37
2018-07-12T00:27:15.989Z,1013.35
2018-07-12T00:28:15.943Z,1013.36
2018-07-12T00:29:15.908Z,1013.34
2018-07-12T00:30:15.861Z,1013.32
2018-07-12T00:31:15.819Z,1013.29
2018-07-12T00:32:15.777Z,1013.30
2018-07-12T00:33:15.736Z,1013.35
2018-07-12T00:34:15.696Z,1013.33
2018-07-12T00:35:15.653Z,1013.35
2018-07-12T00:36:15.612Z,1013.33
2018-07-12T00:37:15.575Z,1013.32
2018-07-12T00:38:15.538Z,1013.34
2018-07-12T00:39:15.490Z,1013.36
2018-07-12T00:40:15.448Z,1013.35
2018-07-12T00:41:15.404Z,1013.36
2018-07-12T00:42:15.362Z,1013.37
2018-07-12T00:43:15.315Z,1013.35
2018-07-12T00:44:15.283Z,1013.36
2018-07-12T00:45:15.236Z,1013.38
2018-07-12T00:46:15.203Z,1013.39
2018-07-12T00:47:15.160Z,1013.37
2018-07-12T00:48:15.126Z,1013.39
2018-07-12T00:49:15.075Z,1013.37
2018-07-12T00:50:15.034Z,1013.37
2018-07-12T00:51:14.989Z,1013.40
2018-07-12T00:52:14.949Z,1013.37
2018-07-12T00:53:14.908Z,1013.39
2018-07-12T00:54:14.865Z,1013.38
2018-07-12T00:55:14.845Z,1013.40
2018-07-12T00:56:14.785Z,1013.41
2018-07-12T00:57:14.744Z,1013.39
2018-07-12T00:58:14.699Z,1013.42
2018-07-12T00:59:14.660Z,1013.40
2018-07-12T01:00:14.619Z,1013.43
2018-07-12T01:01:14.578Z,1013.41
2018-07-12T01:02:14.536Z,1013.44
2018-07-12T01:03:14.494Z,1013.44
2018-07-12T01:04:14.456Z,1013.41
2018-07-12T01:05:14.415Z,1013.42
2018-07-12T01:06:14.369Z,1013.40
2018-07-12T01:07:14.327Z,1013.38
2018-07-12T01:08:14.285Z,1013.37
2018-07-12T01:09:14.247Z,1013.41
2018-07-12T01:10:14.216Z,1013.39
2018-07-12T01:11:14.151Z,1013.41
2018-07-12T01:12:14.120Z,1013.44
2018-07-12T01:13:14.079Z,1013.44
2018-07-12T01:14:14.041Z,1013.44
2018-07-12T01:15:13.996Z,1013.41
2018-07-12T01:16:13.954Z,1013.43
2018-07-12T01:17:13.920Z,1013.40
2018-07-12T01:18:13.872Z,1013.43
2018-07-12T01:19:13.830Z,1013.41
2018-07-12T01:20:13.789Z,1013.40
2018-07-12T01:21:13.747Z,1013.44
2018-07-12T01:22:13.706Z,1013.43
2018-07-12T01:23:13.670Z,1013.42
2018-07-12T01:24:13.628Z,1013.45
2018-07-12T01:25:13.581Z,1013.42
2018-07-12T01:26:13.540Z,1013.39
2018-07-12T01:27:13.500Z,1013.38
2018-07-12T01:28:13.477Z,1013.39
2018-07-12T01:29:13.412Z,1013.37
2018-07-12T01:30:13.370Z,1013.31
2018-07-12T01:31:13.339Z,1013.29
2018-07-12T01:32:13.291Z,1013.33
2018-07-12T01:33:13.246Z,1013.33
2018-07-12T01:34:13.212Z,1013.27
2018-07-12T01:35:13.163Z,1013.29
2018-07-12T01:36:13.160Z,1013.24
2018-07-12T01:37:13.082Z,1013.30
2018-07-12T01:38:13.040Z,1013.29
2018-07-12T01:39:12.998Z,1013.31
2018-07-12T01:40:12.956Z,1013.30
2018-07-12T01:41:12.916Z,1013.25
2018-07-12T01:42:12.875Z,1013.30
2018-07-12T01:43:12.833Z,1013.28
2018-07-12T01:44:12.791Z,1013.31
2018-07-12T01:45:12.749Z,1013.26
2018-07-12T01:46:12.704Z,1013.29
2018-07-12T01:47:12.665Z,1013.27
2018-07-12T01:48:12.627Z,1013.29
2018-07-12T01:49:12.583Z,1013.31
2018-07-12T01:50:12.540Z,1013.25
2018-07-12T01:51:12.502Z,1013.25
2018-07-12T01:52:12.459Z,1013.21
2018-07-12T01:53:12.418Z,1013.23
2018-07-12T01:54:12.382Z,1013.26
2018-07-12T01:55:12.334Z,1013.24
2018-07-12T01:56:12.299Z,1013.28
2018-07-12T01:57:12.277Z,1013.25
2018-07-12T01:58:12.209Z,1013.27
2018-07-12T01:59:12.174Z,1013.24
2018-07-12T02:00:12.123Z,1013.24
2018-07-12T02:01:12.075Z,1013.23
2018-07-12T02:02:12.056Z,1013.23
2018-07-12T02:03:12.005Z,1013.24
2018-07-12T02:04:11.969Z,1013.23
2018-07-12T02:05:11.913Z,1013.22
2018-07-12T02:06:11.880Z,1013.22
2018-07-12T02:07:11.830Z,1013.23
2018-07-12T02:08:11.792Z,1013.20
2018-07-12T02:09:11.743Z,1013.19
2018-07-12T02:10:11.711Z,1013.20
2018-07-12T02:11:11.663Z,1013.18
2018-07-12T02:12:11.627Z,1013.18
2018-07-12T02:13:11.596Z,1013.18
2018-07-12T02:14:11.544Z,1013.18
2018-07-12T02:15:11.509Z,1013.19
2018-07-12T02:16:11.465Z,1013.17
2018-07-12T02:17:11.420Z,1013.17
2018-07-12T02:18:11.378Z,1013.20
2018-07-12T02:19:11.337Z,1013.20
2018-07-12T02:20:11.295Z,1013.20
2018-07-12T02:21:11.267Z,1013.19
2018-07-12T02:22:11.218Z,1013.22
2018-07-12T02:23:11.173Z,1013.19
2018-07-12T02:24:11.130Z,1013.18
2018-07-12T02:25:11.088Z,1013.16
2018-07-12T02:26:11.042Z,1013.14
2018-07-12T02:27:11.006Z,1013.14
2018-07-12T02:28:10.966Z,1013.14
2018-07-12T02:29:10.919Z,1013.15
2018-07-12T02:30:10.897Z,1013.10
2018-07-12T02:31:10.849Z,1013.11
2018-07-12T02:32:10.808Z,1013.13
2018-07-12T02:33:10.767Z,1013.18
2018-07-12T02:34:10.719Z,1013.17
2018-07-12T02:35:10.714Z,1013.17
2018-07-12T02:36:10.633Z,1013.19
2018-07-12T02:37:10.589Z,1013.15
2018-07-12T02:38:10.604Z,1013.19
2018-07-12T02:39:10.510Z,1013.19
2018-07-12T02:40:10.481Z,1013.16
2018-07-12T02:41:10.430Z,1013.17
2018-07-12T02:42:10.385Z,1013.11
2018-07-12T02:43:10.340Z,1013.12
2018-07-12T02:44:10.301Z,1013.12
2018-07-12T02:45:10.253Z,1013.13
2018-07-12T02:46:10.218Z,1013.15
2018-07-12T02:47:10.177Z,1013.15
2018-07-12T02:48:10.150Z,1013.15
2018-07-12T02:49:10.112Z,1013.22
2018-07-12T02:50:10.054Z,1013.21
2018-07-12T02:51:10.019Z,1013.20
2018-07-12T02:52:09.975Z,1013.24
2018-07-12T02:53:09.929Z,1013.25
2018-07-12T02:54:09.887Z,1013.21
2018-07-12T02:55:09.854Z,1013.22
2018-07-12T02:56:09.801Z,1013.24
2018-07-12T02:57:09.781Z,1013.22
2018-07-12T02:58:09.720Z,1013.24
2018-07-12T02:59:09.678Z,1013.24
2018-07-12T03:00:09.642Z,1013.23
2018-07-12T03:01:09.602Z,1013.26
2018-07-12T03:02:09.551Z,1013.25
2018-07-12T03:03:09.515Z,1013.24
2018-07-12T03:04:09.475Z,1013.25
2018-07-12T03:05:09.433Z,1013.24
2018-07-12T03:06:09.387Z,1013.23
2018-07-12T03:07:09.351Z,1013.24
2018-07-12T03:08:09.312Z,1013.27
2018-07-12T03:09:09.267Z,1013.27
2018-07-12T03:10:09.225Z,1013.23
2018-07-12T03:11:09.191Z,1013.26
2018-07-12T03:12:09.142Z,1013.28
2018-07-12T03:13:09.103Z,1013.28
2018-07-12T03:14:09.059Z,1013.26
2018-07-12T03:15:09.014Z,1013.27
2018-07-12T03:16:08.978Z,1013.26
2018-07-12T03:17:08.931Z,1013.28
2018-07-12T03:18:08.890Z,1013.26
2018-07-12T03:19:08.851Z,1013.24
2018-07-12T03:20:08.806Z,1013.27
2018-07-12T03:21:08.771Z,1013.26
2018-07-12T03:22:08.727Z,1013.28
2018-07-12T03:23:08.686Z,1013.27
2018-07-12T03:24:08.645Z,1013.27
2018-07-12T03:25:08.602Z,1013.25
2018-07-12T03:26:08.564Z,1013.27
2018-07-12T03:27:08.524Z,1013.30
2018-07-12T03:28:08.479Z,1013.29
2018-07-12T03:29:08.446Z,1013.32
2018-07-12T03:30:08.395Z,1013.33
2018-07-12T03:31:08.349Z,1013.33
2018-07-12T03:32:08.315Z,1013.33
2018-07-12T03:33:08.279Z,1013.35
2018-07-12T03:34:08.231Z,1013.38
2018-07-12T03:35:08.177Z,1013.37
2018-07-12T03:36:08.146Z,1013.34
2018-07-12T03:37:08.104Z,1013.37
2018-07-12T03:38:08.062Z,1013.37
2018-07-12T03:39:08.021Z,1013.39
2018-07-12T03:40:07.983Z,1013.35
2018-07-12T03:41:07.940Z,1013.36
2018-07-12T03:42:07.898Z,1013.33
2018-07-12T03:43:07.857Z,1013.36
2018-07-12T03:44:07.815Z,1013.36
2018-07-12T03:45:07.771Z,1013.36
2018-07-12T03:46:07.731Z,1013.36
2018-07-12T03:47:07.693Z,1013.36
2018-07-12T03:48:07.651Z,1013.39
2018-07-12T03:49:07.610Z,1013.39
2018-07-12T03:50:07.568Z,1013.36
2018-07-12T03:51:07.530Z,1013.38
2018-07-12T03:52:07.481Z,1013.40
2018-07-12T03:53:07.442Z,1013.41
2018-07-12T03:54:07.401Z,1013.43
2018-07-12T03:55:07.360Z,1013.41
2018-07-12T03:56:07.317Z,1013.42
2018-07-12T03:57:07.275Z,1013.42
2018-07-12T03:58:07.291Z,1013.40
2018-07-12T03:59:07.199Z,1013.41
2018-07-12T04:00:07.151Z,1013.42
2018-07-12T04:01:07.118Z,1013.42
2018-07-12T04:02:07.070Z,1013.41
2018-07-12T04:03:08.015Z,1013.40
2018-07-12T04:04:06.990Z,1013.41
2018-07-12T04:05:06.944Z,1013.43
2018-07-12T04:06:06.905Z,1013.42
2018-07-12T04:07:06.864Z,1013.41
2018-07-12T04:08:06.831Z,1013.41
2018-07-12T04:09:06.780Z,1013.39
2018-07-12T04:10:06.743Z,1013.41
2018-07-12T04:11:06.697Z,1013.38
2018-07-12T04:12:06.656Z,1013.44
2018-07-12T04:13:06.615Z,1013.41
2018-07-12T04:14:06.579Z,1013.39
2018-07-12T04:15:06.531Z,1013.40
2018-07-12T04:16:06.490Z,1013.42
2018-07-12T04:17:06.442Z,1013.37
2018-07-12T04:18:06.410Z,1013.45
2018-07-12T04:19:06.365Z,1013.42
2018-07-12T04:20:06.333Z,1013.42
2018-07-12T04:21:06.295Z,1013.42
2018-07-12T04:22:06.241Z,1013.45
2018-07-12T04:23:06.203Z,1013.47
2018-07-12T04:24:06.149Z,1013.51
2018-07-12T04:25:06.117Z,1013.49
2018-07-12T04:26:06.076Z,1013.49
2018-07-12T04:27:06.037Z,1013.49
2018-07-12T04:28:05.989Z,1013.49
2018-07-12T04:29:05.949Z,1013.47
2018-07-12T04:30:05.911Z,1013.48
2018-07-12T04:31:05.870Z,1013.48
2018-07-12T04:32:05.828Z,1013.49
2018-07-12T04:33:05.783Z,1013.49
2018-07-12T04:34:05.743Z,1013.46
2018-07-12T04:35:05.707Z,1013.49
2018-07-12T04:36:05.666Z,1013.49
2018-07-12T04:37:05.621Z,1013.46
2018-07-12T04:38:05.580Z,1013.47
2018-07-12T04:39:05.538Z,1013.50
2018-07-12T04:40:05.499Z,1013.53
2018-07-12T04:41:05.454Z,1013.54
2018-07-12T04:42:05.412Z,1013.57
2018-07-12T04:43:05.372Z,1013.60
2018-07-12T04:44:05.334Z,1013.60
2018-07-12T04:45:05.289Z,1013.61
2018-07-12T04:46:05.249Z,1013.61
2018-07-12T04:47:05.208Z,1013.56
2018-07-12T04:48:05.164Z,1013.61
2018-07-12T04:49:05.123Z,1013.62
2018-07-12T04:50:05.082Z,1013.63
2018-07-12T04:51:05.080Z,1013.63
2018-07-12T04:52:04.988Z,1013.63
2018-07-12T04:53:04.960Z,1013.64
2018-07-12T04:54:04.934Z,1013.66
2018-07-12T04:55:04.876Z,1013.69
2018-07-12T04:56:04.834Z,1013.69
2018-07-12T04:57:04.793Z,1013.67
2018-07-12T04:58:04.770Z,1013.72
2018-07-12T04:59:04.707Z,1013.68
2018-07-12T05:00:04.667Z,1013.68
2018-07-12T05:01:04.629Z,1013.69
2018-07-12T05:02:04.587Z,1013.69
2018-07-12T05:03:04.544Z,1013.72
2018-07-12T05:04:04.499Z,1013.71
2018-07-12T05:05:04.461Z,1013.72
2018-07-12T05:06:04.419Z,1013.73
2018-07-12T05:07:04.377Z,1013.70
2018-07-12T05:08:04.343Z,1013.69
2018-07-12T05:09:04.295Z,1013.73
2018-07-12T05:10:04.250Z,1013.74
2018-07-12T05:11:04.212Z,1013.72
2018-07-12T05:12:04.170Z,1013.74
2018-07-12T05:13:04.125Z,1013.72
2018-07-12T05:14:04.090Z,1013.69
2018-07-12T05:15:04.036Z,1013.71
2018-07-12T05:16:04.004Z,1013.68
2018-07-12T05:17:03.963Z,1013.65
2018-07-12T05:18:03.928Z,1013.65
2018-07-12T05:19:03.881Z,1013.67
2018-07-12T05:20:03.841Z,1013.66
2018-07-12T05:21:03.796Z,1013.68
2018-07-12T05:22:03.755Z,1013.70
2018-07-12T05:23:03.715Z,1013.65
2018-07-12T05:24:03.676Z,1013.68
2018-07-12T05:25:03.624Z,1013.67
2018-07-12T05:26:03.598Z,1013.67
2018-07-12T05:27:03.550Z,1013.74
2018-07-12T05:28:03.508Z,1013.71
2018-07-12T05:29:03.467Z,1013.70
2018-07-12T05:30:03.425Z,1013.70
2018-07-12T05:31:03.383Z,1013.75
2018-07-12T05:32:03.343Z,1013.77
2018-07-12T05:33:03.307Z,1013.78
2018-07-12T05:34:03.259Z,1013.81
2018-07-12T05:35:03.211Z,1013.80
2018-07-12T05:36:03.179Z,1013.78
2018-07-12T05:37:03.133Z,1013.77
2018-07-12T05:38:03.115Z,1013.82
2018-07-12T05:39:03.161Z,1013.78
2018-07-12T05:40:03.012Z,1013.77
2018-07-12T05:41:02.968Z,1013.79
2018-07-12T05:42:02.928Z,1013.78
2018-07-12T05:43:02.894Z,1013.84
2018-07-12T05:44:02.848Z,1013.82
2018-07-12T05:45:02.806Z,1013.83
2018-07-12T05:46:02.762Z,1013.84
2018-07-12T05:47:02.723Z,1013.85
2018-07-12T05:48:02.685Z,1013.85
2018-07-12T05:50:02.598Z,1013.86
2018-07-12T05:51:02.557Z,1013.89
2018-07-12T05:52:02.514Z,1013.89
2018-07-12T05:53:02.469Z,1013.91
2018-07-12T05:54:02.431Z,1013.90
2018-07-12T05:55:02.387Z,1013.90
2018-07-12T05:56:02.348Z,1013.92
2018-07-12T05:57:02.305Z,1013.93
2018-07-12T05:58:02.264Z,1013.95
2018-07-12T05:59:02.223Z,1013.98
2018-07-12T06:00:02.181Z,1013.94
2018-07-12T06:01:02.147Z,1013.95
2018-07-12T06:02:02.105Z,1013.95
2018-07-12T06:03:02.058Z,1013.95
2018-07-12T06:04:02.019Z,1013.96
2018-07-12T06:05:01.982Z,1013.96
2018-07-12T06:06:01.933Z,1013.93
2018-07-12T06:08:33.648Z,1013.95
2018-07-12T06:19:06.430Z,1013.96
2018-07-12T06:20:06.396Z,1013.95
2018-07-12T06:21:06.348Z,1013.96
2018-07-12T06:22:06.320Z,1013.96
2018-07-12T06:23:06.262Z,1014.00
2018-07-12T06:24:06.223Z,1014.00
2018-07-12T06:25:06.181Z,1014.00
2018-07-12T06:26:06.141Z,1014.03
2018-07-12T06:27:06.102Z,1014.05
2018-07-12T06:28:06.057Z,1014.05
2018-07-12T06:29:06.021Z,1014.05
2018-07-12T06:30:06.058Z,1014.05
2018-07-12T06:31:05.935Z,1014.09
2018-07-12T06:32:05.893Z,1014.08
2018-07-12T06:33:05.851Z,1014.11
2018-07-12T06:34:05.809Z,1014.16
2018-07-12T06:35:05.767Z,1014.12
2018-07-12T06:36:05.734Z,1014.16
2018-07-12T06:37:05.740Z,1014.15
2018-07-12T06:38:05.650Z,1014.18
2018-07-12T06:39:05.601Z,1014.18
2018-07-12T06:40:05.557Z,1014.21
2018-07-12T06:41:05.518Z,1014.25
2018-07-12T06:42:05.473Z,1014.27
2018-07-12T06:43:05.435Z,1014.27
2018-07-12T06:44:05.414Z,1014.28
2018-07-12T06:45:05.358Z,1014.26
2018-07-12T06:46:05.308Z,1014.31
2018-07-12T06:47:05.279Z,1014.33
2018-07-12T06:48:05.229Z,1014.34
2018-07-12T06:49:05.187Z,1014.31
2018-07-12T06:50:05.142Z,1014.34
2018-07-12T06:51:05.104Z,1014.32
2018-07-12T06:52:05.064Z,1014.31
2018-07-12T06:53:05.021Z,1014.33
2018-07-12T06:54:04.979Z,1014.34
2018-07-12T06:55:04.940Z,1014.33
2018-07-12T06:56:04.899Z,1014.37
2018-07-12T06:57:04.854Z,1014.40
2018-07-12T06:58:04.816Z,1014.41
2018-07-12T06:59:04.777Z,1014.42
2018-07-12T07:00:04.741Z,1014.44
2018-07-12T07:01:04.681Z,1014.45
2018-07-12T07:02:04.648Z,1014.44
2018-07-12T07:03:04.610Z,1014.46
2018-07-12T07:04:04.565Z,1014.45
2018-07-12T07:05:04.525Z,1014.45
2018-07-12T07:06:04.480Z,1014.48
2018-07-12T07:07:04.448Z,1014.47
2018-07-12T07:08:04.404Z,1014.46
2018-07-12T07:09:04.398Z,1014.45
2018-07-12T07:10:04.314Z,1014.43
2018-07-12T07:11:04.273Z,1014.46
2018-07-12T07:12:04.234Z,1014.46
2018-07-12T07:13:04.195Z,1014.45
2018-07-12T07:14:04.154Z,1014.46
2018-07-12T07:15:04.107Z,1014.42
2018-07-12T07:16:04.072Z,1014.42
2018-07-12T07:17:04.020Z,1014.43
2018-07-12T07:18:03.975Z,1014.44
2018-07-12T07:19:03.945Z,1014.44
2018-07-12T07:20:03.907Z,1014.45
2018-07-12T07:21:03.858Z,1014.50
2018-07-12T07:22:03.813Z,1014.49
2018-07-12T07:23:03.778Z,1014.48
2018-07-12T07:24:03.731Z,1014.49
2018-07-12T07:25:03.693Z,1014.50
2018-07-12T07:26:03.651Z,1014.52
2018-07-12T07:27:03.606Z,1014.53
2018-07-12T07:28:03.564Z,1014.53
2018-07-12T07:29:03.525Z,1014.58
2018-07-12T07:30:03.484Z,1014.56
2018-07-12T07:31:03.442Z,1014.56
2018-07-12T07:32:03.403Z,1014.59
2018-07-12T07:33:03.359Z,1014.57
2018-07-12T07:34:03.318Z,1014.59
2018-07-12T07:35:03.277Z,1014.59
2018-07-12T07:36:03.236Z,1014.60
2018-07-12T07:37:03.194Z,1014.58
2018-07-12T07:38:03.151Z,1014.56
2018-07-12T07:39:03.110Z,1014.55
2018-07-12T07:40:03.068Z,1014.58
2018-07-12T07:41:03.027Z,1014.61
2018-07-12T07:42:02.985Z,1014.62
2018-07-12T07:43:02.956Z,1014.60
2018-07-12T07:44:02.902Z,1014.62
2018-07-12T07:45:02.868Z,1014.63
2018-07-12T07:46:02.814Z,1014.66
2018-07-12T07:47:02.775Z,1014.73
2018-07-12T07:48:02.730Z,1014.67
2018-07-12T07:49:02.691Z,1014.75
2018-07-12T07:50:02.651Z,1014.74
2018-07-12T07:51:02.609Z,1014.73
2018-07-12T07:52:02.568Z,1014.77
2018-07-12T07:53:02.535Z,1014.78
2018-07-12T07:54:02.487Z,1014.76
2018-07-12T07:55:02.442Z,1014.79
2018-07-12T07:56:02.401Z,1014.78
2018-07-12T07:57:02.376Z,1014.81
2018-07-12T07:58:02.326Z,1014.77
2018-07-12T07:59:02.281Z,1014.82
2018-07-12T08:00:02.240Z,1014.81
2018-07-12T08:01:02.195Z,1014.81
2018-07-12T08:02:02.154Z,1014.79
2018-07-12T08:03:02.107Z,1014.78
2018-07-12T08:04:02.065Z,1014.80
2018-07-12T08:05:02.021Z,1014.78
2018-07-12T08:06:02.008Z,1014.81
2018-07-12T08:07:01.938Z,1014.82
2018-07-12T08:08:01.896Z,1014.83
2018-07-12T08:09:01.851Z,1014.83
2018-07-12T08:10:01.820Z,1014.84
2018-07-12T08:11:01.771Z,1014.82
2018-07-12T08:12:01.730Z,1014.85
2018-07-12T08:13:01.692Z,1014.81
2018-07-12T08:14:01.647Z,1014.84
2018-07-12T08:15:01.602Z,1014.86
2018-07-12T08:16:01.568Z,1014.82
2018-07-12T08:17:01.520Z,1014.82
2018-07-12T08:18:01.478Z,1014.79
2018-07-12T08:19:01.437Z,1014.84
2018-07-12T08:20:01.392Z,1014.79
2018-07-12T08:21:01.403Z,1014.84
2018-07-12T08:22:01.316Z,1014.80
2018-07-12T08:23:01.270Z,1014.79
2018-07-12T08:24:01.226Z,1014.80
2018-07-12T08:25:01.193Z,1014.79
2018-07-12T08:26:01.145Z,1014.75
2018-07-12T08:27:01.103Z,1014.72
2018-07-12T08:28:01.061Z,1014.74
2018-07-12T08:29:01.024Z,1014.73
2018-07-12T08:30:01.034Z,1014.72
2018-07-12T08:31:00.937Z,1014.73
2018-07-12T08:32:00.893Z,1014.76
2018-07-12T08:33:00.851Z,1014.74
2018-07-12T08:34:00.812Z,1014.73
2018-07-12T08:35:00.768Z,1014.77
2018-07-12T08:36:00.732Z,1014.74
2018-07-12T08:37:00.743Z,1014.76
2018-07-12T08:38:00.642Z,1014.77
2018-07-12T08:39:00.607Z,1014.78
2018-07-12T08:40:00.559Z,1014.77
2018-07-12T08:41:00.519Z,1014.80
2018-07-12T08:42:00.477Z,1014.77
2018-07-12T08:43:00.441Z,1014.83
2018-07-12T08:44:00.391Z,1014.86
2018-07-12T08:45:00.349Z,1014.83
2018-07-12T08:46:00.316Z,1014.86
2018-07-12T08:47:00.266Z,1014.84
2018-07-12T08:48:00.228Z,1014.81
2018-07-12T08:49:00.183Z,1014.83
2018-07-12T08:50:00.138Z,1014.82
2018-07-12T08:51:00.104Z,1014.86
2018-07-12T08:52:00.058Z,1014.86
2018-07-12T08:53:00.049Z,1014.85
2018-07-12T08:53:59.974Z,1014.87
2018-07-12T08:54:59.934Z,1014.85
2018-07-12T08:55:59.892Z,1014.86
2018-07-12T08:56:59.849Z,1014.84
2018-07-12T08:57:59.810Z,1014.86
2018-07-12T08:58:59.766Z,1014.89
2018-07-12T08:59:59.722Z,1014.84
2018-07-12T09:00:59.684Z,1014.86
2018-07-12T09:01:59.642Z,1014.88
2018-07-12T09:02:59.646Z,1014.91
2018-07-12T09:03:59.556Z,1014.87
2018-07-12T09:04:59.514Z,1014.93
2018-07-12T09:05:59.473Z,1014.89
2018-07-12T09:06:59.438Z,1014.92
2018-07-12T09:07:59.390Z,1014.89
2018-07-12T09:08:59.351Z,1014.93
2018-07-12T09:09:59.313Z,1014.91
2018-07-12T09:10:59.266Z,1014.89
2018-07-12T09:11:59.220Z,1014.89
2018-07-12T09:12:59.176Z,1014.91
2018-07-12T09:13:59.144Z,1014.90
2018-07-12T09:14:59.100Z,1014.89
2018-07-12T09:15:59.061Z,1014.90
2018-07-12T09:16:59.013Z,1014.88
2018-07-12T09:17:58.974Z,1014.89
2018-07-12T09:18:58.931Z,1014.89
2018-07-12T09:19:58.892Z,1014.90
2018-07-12T09:20:58.851Z,1014.90
2018-07-12T09:21:58.806Z,1014.91
2018-07-12T09:22:58.765Z,1014.88
2018-07-12T09:23:58.726Z,1014.92
2018-07-12T09:24:58.683Z,1014.89
2018-07-12T09:25:58.642Z,1014.94
2018-07-12T09:26:58.600Z,1014.93
2018-07-12T09:27:58.564Z,1014.91
2018-07-12T09:28:58.549Z,1014.94
2018-07-12T09:29:58.473Z,1014.94
2018-07-12T09:30:58.435Z,1014.98
2018-07-12T09:31:58.393Z,1014.97
2018-07-12T09:32:58.348Z,1014.97
2018-07-12T09:33:58.306Z,1014.97
2018-07-12T09:34:58.300Z,1014.99
2018-07-12T09:35:58.223Z,1015.00
2018-07-12T09:36:58.223Z,1014.99
2018-07-12T09:37:58.142Z,1014.97
2018-07-12T09:38:58.103Z,1014.99
2018-07-12T09:39:58.088Z,1014.99
2018-07-12T09:40:58.024Z,1014.97
2018-07-12T09:41:57.975Z,1014.97
2018-07-12T09:42:57.950Z,1014.96
2018-07-12T09:43:57.892Z,1014.94
2018-07-12T09:44:57.850Z,1014.94
2018-07-12T09:45:57.808Z,1014.98
2018-07-12T09:46:57.767Z,1014.96
2018-07-12T09:47:57.725Z,1014.94
2018-07-12T09:48:57.751Z,1014.97
2018-07-12T09:49:57.642Z,1014.94
2018-07-12T09:50:57.601Z,1014.91
2018-07-12T09:51:57.549Z,1014.92
2018-07-12T09:52:57.516Z,1014.93
2018-07-12T09:53:57.483Z,1014.91
2018-07-12T09:54:57.434Z,1014.88
2018-07-12T09:55:57.471Z,1014.94
2018-07-12T09:56:57.345Z,1014.95
2018-07-12T09:57:57.310Z,1014.94
2018-07-12T09:58:57.270Z,1014.99
2018-07-12T09:59:57.229Z,1014.96
2018-07-12T10:00:57.176Z,1014.99
2018-07-12T10:01:57.144Z,1015.00
2018-07-12T10:02:57.103Z,1015.02
2018-07-12T10:03:57.064Z,1015.01
2018-07-12T10:04:57.022Z,1015.02
2018-07-12T10:05:56.971Z,1015.02
2018-07-12T10:06:56.943Z,1015.01
2018-07-12T10:07:56.899Z,1015.03
2018-07-12T10:08:56.850Z,1015.00
2018-07-12T10:09:56.812Z,1015.01
2018-07-12T10:10:56.767Z,1014.98
2018-07-12T10:11:56.729Z,1015.03
2018-07-12T10:12:56.697Z,1015.00
2018-07-12T10:13:56.655Z,1015.02
2018-07-12T10:14:56.604Z,1015.04
2018-07-12T10:15:56.560Z,1014.99
2018-07-12T10:16:56.518Z,1014.97
2018-07-12T10:17:56.477Z,1015.01
2018-07-12T10:18:56.435Z,1014.97
2018-07-12T10:19:56.432Z,1014.98
2018-07-12T10:20:56.354Z,1014.97
2018-07-12T10:21:56.306Z,1014.91
2018-07-12T10:22:56.274Z,1014.93
2018-07-12T10:23:56.223Z,1014.96
2018-07-12T10:24:56.185Z,1014.94
2018-07-12T10:25:56.145Z,1014.92
2018-07-12T10:26:56.103Z,1014.92
2018-07-12T10:27:56.061Z,1014.91
2018-07-12T10:28:56.026Z,1014.93
2018-07-12T10:29:55.975Z,1014.98
2018-07-12T10:30:55.988Z,1014.92
2018-07-12T10:31:55.884Z,1014.95
2018-07-12T10:32:55.854Z,1014.92
2018-07-12T10:33:55.829Z,1014.90
2018-07-12T10:34:55.779Z,1014.91
2018-07-12T10:35:55.734Z,1014.90
2018-07-12T10:36:55.697Z,1014.90
2018-07-12T10:37:55.643Z,1014.89
2018-07-12T10:38:55.602Z,1014.90
2018-07-12T10:39:55.563Z,1014.90
2018-07-12T10:40:55.521Z,1014.90
2018-07-12T10:41:55.486Z,1014.88
2018-07-12T10:42:55.438Z,1014.88
2018-07-12T10:43:55.393Z,1014.88
2018-07-12T10:44:55.351Z,1014.89
2018-07-12T10:45:55.312Z,1014.87
2018-07-12T10:46:55.274Z,1014.87
2018-07-12T10:47:55.229Z,1014.91
2018-07-12T10:48:55.188Z,1014.91
2018-07-12T10:49:55.152Z,1014.91
2018-07-12T10:50:55.110Z,1014.87
2018-07-12T10:51:55.072Z,1014.87
2018-07-12T10:52:55.024Z,1014.90
2018-07-12T10:53:54.979Z,1014.88
2018-07-12T10:54:54.939Z,1014.88
2018-07-12T10:55:54.898Z,1014.88
2018-07-12T10:56:54.852Z,1014.88
2018-07-12T10:57:54.808Z,1014.88
2018-07-12T10:58:54.775Z,1014.88
2018-07-12T10:59:54.731Z,1014.88
2018-07-12T11:00:54.692Z,1014.92
2018-07-12T11:01:54.644Z,1014.90
2018-07-12T11:02:54.603Z,1014.89
2018-07-12T11:03:54.564Z,1014.92
2018-07-12T11:04:54.520Z,1014.89
2018-07-12T11:05:54.478Z,1014.90
2018-07-12T11:06:54.437Z,1014.87
2018-07-12T11:07:54.392Z,1014.85
2018-07-12T11:09:54.313Z,1014.86
2018-07-12T11:10:54.281Z,1014.82
2018-07-12T11:11:54.243Z,1014.85
2018-07-12T11:12:54.188Z,1014.82
2018-07-12T11:13:54.147Z,1014.81
2018-07-12T11:14:54.105Z,1014.83
2018-07-12T11:15:54.140Z,1014.83
2018-07-12T11:16:54.020Z,1014.86
2018-07-12T11:17:53.978Z,1014.79
2018-07-12T11:18:53.938Z,1014.81
2018-07-12T11:19:53.896Z,1014.81
2018-07-12T11:20:53.856Z,1014.78
2018-07-12T11:21:53.813Z,1014.81
2018-07-12T11:22:53.772Z,1014.80
2018-07-12T11:23:53.731Z,1014.83
2018-07-12T11:24:53.689Z,1014.86
2018-07-12T11:25:53.648Z,1014.80
2018-07-12T11:26:53.606Z,1014.77
2018-07-12T11:27:53.567Z,1014.82
2018-07-12T11:28:53.522Z,1014.80
2018-07-12T11:29:53.480Z,1014.80
2018-07-12T11:30:53.446Z,1014.79
2018-07-12T11:31:53.397Z,1014.79
2018-07-12T11:32:53.356Z,1014.81
2018-07-12T11:33:53.316Z,1014.76
2018-07-12T11:34:53.279Z,1014.78
2018-07-12T11:35:53.233Z,1014.75
2018-07-12T11:36:53.191Z,1014.77
2018-07-12T11:37:53.149Z,1014.80
2018-07-12T11:38:53.117Z,1014.76
2018-07-12T11:39:53.066Z,1014.78
2018-07-12T11:40:53.021Z,1014.76
2018-07-12T11:41:52.983Z,1014.72
2018-07-12T11:42:52.941Z,1014.78
2018-07-12T11:43:52.900Z,1014.75
2018-07-12T11:44:52.869Z,1014.73
2018-07-12T11:45:52.818Z,1014.77
2018-07-12T11:46:52.781Z,1014.75
2018-07-12T11:47:52.736Z,1014.72
2018-07-12T11:48:52.690Z,1014.74
2018-07-12T11:49:52.649Z,1014.73
2018-07-12T11:50:52.667Z,1014.69
2018-07-12T11:51:52.565Z,1014.71
2018-07-12T11:52:52.551Z,1014.72
2018-07-12T11:53:52.487Z,1014.69
2018-07-12T11:54:52.443Z,1014.67
2018-07-12T11:55:52.402Z,1014.67
2018-07-12T11:56:52.360Z,1014.73
2018-07-12T11:57:52.319Z,1014.73
2018-07-12T11:58:52.277Z,1014.67
2018-07-12T11:59:52.235Z,1014.71
2018-07-12T12:00:52.194Z,1014.72
2018-07-12T12:01:52.261Z,1014.73
2018-07-12T12:02:52.111Z,1014.71
2018-07-12T12:03:52.069Z,1014.68
2018-07-12T12:04:52.033Z,1014.69
2018-07-12T12:05:51.986Z,1014.66
2018-07-12T12:06:51.978Z,1014.66
2018-07-12T12:07:51.901Z,1014.66
2018-07-12T12:08:51.859Z,1014.69
2018-07-12T12:09:51.819Z,1014.67
2018-07-12T12:10:51.776Z,1014.67
2018-07-12T12:11:51.732Z,1014.68
2018-07-12T12:12:51.779Z,1014.68
2018-07-12T12:13:51.662Z,1014.67
2018-07-12T12:14:51.613Z,1014.68
2018-07-12T12:15:51.572Z,1014.67
2018-07-12T12:16:51.539Z,1014.65
2018-07-12T12:17:51.478Z,1014.61
2018-07-12T12:18:51.459Z,1014.64